createdAt,value
2022-10-17T00:03:06.113Z,891.61991
2022-10-17T00:18:08.426Z,858.617
2022-10-17T00:33:10.765Z,882.17007
2022-10-17T00:48:13.063Z,885.48235
2022-10-17T01:03:15.367Z,846.79882
2022-10-17T01:18:17.810Z,821.24252
2022-10-17T01:33:20.196Z,838.27064
2022-10-17T01:48:22.530Z,849.34023
2022-10-17T02:03:24.817Z,847.30589
2022-10-17T02:18:27.067Z,860.18287
2022-10-17T02:33:29.479Z,834.80876
2022-10-17T02:48:31.810Z,804.43483
2022-10-17T03:03:34.131Z,795.83852
2022-10-17T03:18:36.455Z,803.52122
2022-10-17T03:33:38.769Z,766.1077
2022-10-17T03:48:41.071Z,770.69766
2022-10-17T04:03:43.558Z,792.27373
2022-10-17T04:18:45.900Z,816.97509
2022-10-17T04:33:48.177Z,831.37535
2022-10-17T04:48:50.780Z,849.34023
2022-10-17T05:03:53.110Z,875.61931
2022-10-17T05:18:55.375Z,847.30589
2022-10-17T05:33:57.670Z,850.36107
2022-10-17T05:48:59.945Z,865.44392
2022-10-17T06:04:02.249Z,885.48235
2022-10-17T06:19:04.566Z,920.62509
2022-10-17T06:34:06.857Z,930.92155
2022-10-17T06:49:09.160Z,967.1912
2022-10-17T07:04:11.478Z,983.32225
2022-10-17T07:19:13.774Z,1005.68636
2022-10-17T07:34:16.125Z,1040.44168
2022-10-17T07:49:18.473Z,1033.60167
2022-10-17T08:04:20.764Z,1030.59045
2022-10-17T08:19:23.141Z,1061.51588
2022-10-17T08:34:25.418Z,1049.70377
2022-10-17T08:49:27.751Z,1007.83526
2022-10-17T09:19:32.493Z,1051.2635
2022-10-17T09:34:34.775Z,1067.11966
2022-10-17T09:49:37.012Z,1019.45295
2022-10-17T10:04:59.786Z,1038.15164
2022-10-17T10:20:05.480Z,1056.75928
2022-10-17T10:35:07.764Z,1056.75928
2022-10-17T10:50:10.058Z,1088.46204
2022-10-17T11:05:12.393Z,1120.34888
2022-10-17T11:20:14.716Z,1166.52977
2022-10-17T11:35:17.220Z,1152.28063
2022-10-17T12:05:51.866Z,1155.10254
2022-10-17T12:20:54.363Z,1168.45633
2022-10-17T12:35:56.664Z,1148.53946
2022-10-17T12:51:17.665Z,1172.32859
2022-10-17T13:06:33.564Z,1171.35812
2022-10-17T13:21:35.898Z,1132.90683
2022-10-17T13:36:38.201Z,1065.51255
2022-10-17T13:51:40.526Z,1134.72384
2022-10-17T14:06:44.983Z,1146.67798
2022-10-17T14:21:50.443Z,1064.71081
2022-10-17T14:36:52.743Z,1081.80478
2022-10-17T14:51:57.002Z,1130.1922
2022-10-17T15:07:09.576Z,1123.01638
2022-10-17T15:22:11.902Z,1082.63248
2022-10-17T15:37:14.153Z,1063.11094
2022-10-17T15:52:16.486Z,1083.46145
2022-10-17T16:07:18.825Z,1092.66459
2022-10-17T16:22:21.126Z,1262.26634
2022-10-17T16:37:23.642Z,1359.27044
2022-10-17T16:52:25.941Z,1352.77298
2022-10-17T17:07:28.600Z,1413.58693
2022-10-17T17:22:31.031Z,1445.35291
2022-10-17T17:37:33.501Z,1443.87806
2022-10-17T17:52:36.136Z,1369.79722
2022-10-17T18:07:38.398Z,1319.9632
2022-10-17T18:22:40.676Z,1298.16565
2022-10-17T18:37:43.029Z,1250.00051
2022-10-17T18:52:45.325Z,1213.55111
2022-10-17T19:07:47.615Z,1204.25582
2022-10-17T19:22:50.037Z,1153.21974
2022-10-17T19:37:52.422Z,1137.46031
2022-10-17T19:52:54.681Z,1193.08651
2022-10-17T20:07:57.007Z,1159.83657
2022-10-17T20:22:59.314Z,1125.6966
2022-10-17T20:38:01.619Z,1157.93831
2022-10-17T20:53:31.299Z,1248.89724
2022-10-17T21:08:37.761Z,1281.70341
2022-10-17T21:23:40.058Z,1273.62787
2022-10-17T21:38:42.331Z,1233.65351
2022-10-17T21:53:44.625Z,1207.33839
2022-10-17T22:08:47.071Z,1202.20951
2022-10-17T22:23:49.335Z,1200.17014
2022-10-17T22:38:51.653Z,1165.56887
2022-10-17T22:53:53.930Z,1145.74949
2022-10-17T23:08:56.183Z,997.88484
2022-10-17T23:23:58.520Z,933.37781
2022-10-17T23:39:00.998Z,890.49767
2022-10-17T23:54:03.238Z,847.30589
